Overview Statistics Trail Chart Weather Telemetry Raw packets
 

This is the latest recevied weather packets stored in our database for station/object WC4PEM-12. If no packets are shown the sender has not sent any weather packets the latest 10 day(s).

<< 1 2 3 4 5 6 >>
Time Temp. Humidity Pressure Rain* Wind** Luminosity Snow
1788565435 26.67° C 88% 1014.6 hPa 0 mm - - -
1788565314 26.67° C 88% 1014.6 hPa 0 mm - - -
1788565127 26.67° C 86% 1014.5 hPa 0 mm - - -
1788565014 26.67° C 86% 1014.5 hPa 0 mm - - -
1788564714 27.22° C 84% 1014.6 hPa 0 mm - - -
1788564535 28.33° C 82% 1014.6 hPa 0 mm - - -
1788564414 28.33° C 82% 1014.6 hPa 0 mm - - -
1788564298 28.89° C 82% 1014.7 hPa 0 mm - - -
1788564114 28.89° C 82% 1014.7 hPa 0 mm - - -
1788563814 28.89° C 82% 1014.8 hPa 0 mm - - -
1788563514 29.44° C 81% 1014.7 hPa 0 mm - - -
1788563214 30° C 80% 1014.3 hPa 0 mm - - -
1788562914 30° C 79% 1014 hPa 0 mm - - -
1788562770 30.56° C 78% 1014 hPa 0 mm - - -
1788562682 24.44° C 97% 1013.3 hPa 0 mm - - -
1788562679 24.44° C 97% 1013.3 hPa 0 mm - - -
1788562614 30.56° C 78% 1014 hPa 0 mm - - -
1788562530 31.11° C 77% 1014 hPa 0 mm - - -
1788562483 31.11° C 77% 1014 hPa 0 mm - - -
1788562314 31.11° C 77% 1014 hPa 0 mm - - -
1788562185 31.67° C 75% 1014.1 hPa 0 mm - - -
1788562014 31.67° C 75% 1014.1 hPa 0 mm - - -
1788561714 32.22° C 77% 1014.1 hPa 0 mm - - -
1788561557 32.22° C 79% 1014 hPa 0 mm - - -
1788561414 32.22° C 79% 1014 hPa 0 mm - - -

* Rain latest hour (hover to see other rain measurements)
** Current wind speed in m/s (hover to see current wind gust speed)